sensor_id;sensor_type;location;lat;lon;timestamp;pressure;altitude;pressure_sealevel;temperature;humidity
73024;BME280;61199;47.526;8.538;2023-04-27T00:01:33;96529.22;;;14.21;65.58
73024;BME280;61199;47.526;8.538;2023-04-27T00:04:00;96531.59;;;14.14;65.98
73024;BME280;61199;47.526;8.538;2023-04-27T00:06:27;96516.72;;;14.05;66.53
73024;BME280;61199;47.526;8.538;2023-04-27T00:08:53;96524.47;;;14.07;65.93
73024;BME280;61199;47.526;8.538;2023-04-27T00:11:20;96524.75;;;14.04;66.22
73024;BME280;61199;47.526;8.538;2023-04-27T00:13:47;96523.44;;;14.00;67.09
73024;BME280;61199;47.526;8.538;2023-04-27T00:16:13;96522.06;;;13.96;66.99
73024;BME280;61199;47.526;8.538;2023-04-27T00:18:41;96515.16;;;13.95;66.28
73024;BME280;61199;47.526;8.538;2023-04-27T00:21:08;96509.88;;;13.95;66.57
73024;BME280;61199;47.526;8.538;2023-04-27T00:23:34;96508.47;;;13.83;66.86
73024;BME280;61199;47.526;8.538;2023-04-27T00:26:01;96508.03;;;13.87;66.66
73024;BME280;61199;47.526;8.538;2023-04-27T00:28:28;96504.94;;;13.92;66.94
73024;BME280;61199;47.526;8.538;2023-04-27T00:30:54;96508.03;;;13.87;67.33
73024;BME280;61199;47.526;8.538;2023-04-27T00:33:21;96499.34;;;13.95;67.19
73024;BME280;61199;47.526;8.538;2023-04-27T00:35:47;96513.22;;;13.97;66.89
73024;BME280;61199;47.526;8.538;2023-04-27T00:38:13;96500.31;;;13.94;67.44
73024;BME280;61199;47.526;8.538;2023-04-27T00:40:40;96497.41;;;13.97;67.35
73024;BME280;61199;47.526;8.538;2023-04-27T00:43:06;96498.22;;;13.97;67.25
73024;BME280;61199;47.526;8.538;2023-04-27T00:45:40;96484.06;;;13.98;67.38
73024;BME280;61199;47.526;8.538;2023-04-27T00:48:09;96489.78;;;13.94;67.80
73024;BME280;61199;47.526;8.538;2023-04-27T00:50:35;96487.81;;;13.96;68.17
73024;BME280;61199;47.526;8.538;2023-04-27T00:53:04;96487.47;;;13.91;67.92
73024;BME280;61199;47.526;8.538;2023-04-27T00:55:32;96484.78;;;13.83;68.47
73024;BME280;61199;47.526;8.538;2023-04-27T00:57:58;96487.03;;;13.78;68.22
73024;BME280;61199;47.526;8.538;2023-04-27T01:00:25;96482.59;;;13.78;68.23
73024;BME280;61199;47.526;8.538;2023-04-27T01:02:51;96486.75;;;13.81;68.09
73024;BME280;61199;47.526;8.538;2023-04-27T01:05:18;96487.88;;;13.78;68.21
73024;BME280;61199;47.526;8.538;2023-04-27T01:07:45;96499.25;;;13.79;68.29
73024;BME280;61199;47.526;8.538;2023-04-27T01:10:11;96499.25;;;13.79;68.62
73024;BME280;61199;47.526;8.538;2023-04-27T01:12:37;96500.75;;;13.64;69.39
73024;BME280;61199;47.526;8.538;2023-04-27T01:15:05;96502.03;;;13.42;70.30
73024;BME280;61199;47.526;8.538;2023-04-27T01:17:32;96510.97;;;13.49;70.12
73024;BME280;61199;47.526;8.538;2023-04-27T01:19:58;96508.03;;;13.52;70.55
73024;BME280;61199;47.526;8.538;2023-04-27T01:22:25;96509.16;;;13.50;70.57
73024;BME280;61199;47.526;8.538;2023-04-27T01:24:52;96516.31;;;13.57;70.37
73024;BME280;61199;47.526;8.538;2023-04-27T01:27:19;96515.56;;;13.47;70.91
73024;BME280;61199;47.526;8.538;2023-04-27T01:29:45;96510.75;;;13.43;71.01
73024;BME280;61199;47.526;8.538;2023-04-27T01:32:11;96521.34;;;13.51;70.71
73024;BME280;61199;47.526;8.538;2023-04-27T01:34:38;96519.09;;;13.56;70.45
73024;BME280;61199;47.526;8.538;2023-04-27T01:37:04;96515.84;;;13.44;70.76
73024;BME280;61199;47.526;8.538;2023-04-27T01:39:31;96513.88;;;13.46;70.56
73024;BME280;61199;47.526;8.538;2023-04-27T01:41:57;96519.09;;;13.38;70.90
73024;BME280;61199;47.526;8.538;2023-04-27T01:44:24;96525.03;;;13.40;70.44
73024;BME280;61199;47.526;8.538;2023-04-27T01:46:50;96518.25;;;13.38;70.50
73024;BME280;61199;47.526;8.538;2023-04-27T01:49:17;96530.34;;;13.31;70.85
73024;BME280;61199;47.526;8.538;2023-04-27T01:51:43;96529.31;;;13.24;71.08
73024;BME280;61199;47.526;8.538;2023-04-27T01:54:09;96521.25;;;13.25;71.03
73024;BME280;61199;47.526;8.538;2023-04-27T01:56:36;96525.69;;;13.25;70.74
73024;BME280;61199;47.526;8.538;2023-04-27T01:59:02;96524.84;;;13.24;70.45
73024;BME280;61199;47.526;8.538;2023-04-27T02:01:28;96525.97;;;13.22;70.27
73024;BME280;61199;47.526;8.538;2023-04-27T02:03:56;96524.94;;;13.15;70.29
73024;BME280;61199;47.526;8.538;2023-04-27T02:06:23;96528.81;;;13.11;70.26
73024;BME280;61199;47.526;8.538;2023-04-27T02:08:49;96528.22;;;13.17;70.25
73024;BME280;61199;47.526;8.538;2023-04-27T02:11:16;96518.06;;;13.22;69.76
73024;BME280;61199;47.526;8.538;2023-04-27T02:13:43;96522.09;;;13.26;69.64
73024;BME280;61199;47.526;8.538;2023-04-27T02:16:09;96525.38;;;13.28;69.59
73024;BME280;61199;47.526;8.538;2023-04-27T02:18:35;96520.72;;;13.22;69.87
73024;BME280;61199;47.526;8.538;2023-04-27T02:21:07;96522.09;;;13.26;69.98
73024;BME280;61199;47.526;8.538;2023-04-27T02:23:35;96515.75;;;13.19;70.62
73024;BME280;61199;47.526;8.538;2023-04-27T02:26:01;96518.63;;;12.98;71.25
73024;BME280;61199;47.526;8.538;2023-04-27T02:28:28;96513.53;;;12.97;71.30
73024;BME280;61199;47.526;8.538;2023-04-27T02:30:55;96512.66;;;12.69;72.10
73024;BME280;61199;47.526;8.538;2023-04-27T02:33:21;96510.31;;;12.39;72.67
73024;BME280;61199;47.526;8.538;2023-04-27T02:35:48;96501.31;;;12.42;73.38
73024;BME280;61199;47.526;8.538;2023-04-27T02:38:14;96496.41;;;12.56;72.89
73024;BME280;61199;47.526;8.538;2023-04-27T02:40:40;96495.78;;;12.72;72.33
73024;BME280;61199;47.526;8.538;2023-04-27T02:43:07;96487.41;;;12.86;71.60
73024;BME280;61199;47.526;8.538;2023-04-27T02:45:36;96493.84;;;13.01;71.25
73024;BME280;61199;47.526;8.538;2023-04-27T02:48:03;96491.75;;;13.04;71.11
73024;BME280;61199;47.526;8.538;2023-04-27T02:50:30;96498.97;;;13.02;70.69
73024;BME280;61199;47.526;8.538;2023-04-27T02:52:56;96494.00;;;12.99;71.17
73024;BME280;61199;47.526;8.538;2023-04-27T02:55:22;96502.28;;;13.04;70.99
73024;BME280;61199;47.526;8.538;2023-04-27T02:57:49;96503.03;;;13.14;70.65
73024;BME280;61199;47.526;8.538;2023-04-27T03:00:15;96504.00;;;12.86;71.43
73024;BME280;61199;47.526;8.538;2023-04-27T03:02:42;96502.78;;;12.81;71.58
73024;BME280;61199;47.526;8.538;2023-04-27T03:05:09;96504.00;;;12.86;71.79
73024;BME280;61199;47.526;8.538;2023-04-27T03:07:36;96507.84;;;12.92;71.26
73024;BME280;61199;47.526;8.538;2023-04-27T03:10:02;96504.25;;;13.02;71.06
73024;BME280;61199;47.526;8.538;2023-04-27T03:12:29;96501.44;;;13.04;71.10
73024;BME280;61199;47.526;8.538;2023-04-27T03:14:55;96510.97;;;13.05;71.49
73024;BME280;61199;47.526;8.538;2023-04-27T03:17:21;96515.28;;;13.06;71.39
73024;BME280;61199;47.526;8.538;2023-04-27T03:19:48;96510.03;;;13.06;71.76
73024;BME280;61199;47.526;8.538;2023-04-27T03:22:14;96518.88;;;13.05;71.54
73024;BME280;61199;47.526;8.538;2023-04-27T03:24:41;96512.84;;;12.95;71.95
73024;BME280;61199;47.526;8.538;2023-04-27T03:27:08;96517.28;;;12.94;72.13
73024;BME280;61199;47.526;8.538;2023-04-27T03:29:34;96512.97;;;12.93;72.13
73024;BME280;61199;47.526;8.538;2023-04-27T03:32:02;96519.25;;;12.83;72.54
73024;BME280;61199;47.526;8.538;2023-04-27T03:34:29;96514.19;;;12.72;73.52
73024;BME280;61199;47.526;8.538;2023-04-27T03:36:57;96517.72;;;12.80;72.81
73024;BME280;61199;47.526;8.538;2023-04-27T03:39:23;96530.44;;;12.85;72.65
73024;BME280;61199;47.526;8.538;2023-04-27T03:41:49;96533.66;;;12.79;72.76
73024;BME280;61199;47.526;8.538;2023-04-27T03:44:16;96520.66;;;12.77;72.85
73024;BME280;61199;47.526;8.538;2023-04-27T03:46:42;96527.66;;;12.86;72.53
73024;BME280;61199;47.526;8.538;2023-04-27T03:49:08;96532.34;;;12.92;72.49
73024;BME280;61199;47.526;8.538;2023-04-27T03:51:35;96537.03;;;12.98;72.16
73024;BME280;61199;47.526;8.538;2023-04-27T03:54:03;96532.19;;;13.03;72.27
73024;BME280;61199;47.526;8.538;2023-04-27T03:56:29;96538.16;;;12.96;72.30
73024;BME280;61199;47.526;8.538;2023-04-27T03:58:56;96541.19;;;13.01;72.17
73024;BME280;61199;47.526;8.538;2023-04-27T04:01:22;96535.94;;;13.01;71.97
73024;BME280;61199;47.526;8.538;2023-04-27T04:03:50;96543.69;;;13.02;71.85
73024;BME280;61199;47.526;8.538;2023-04-27T04:06:17;96546.31;;;13.02;71.53
73024;BME280;61199;47.526;8.538;2023-04-27T04:08:43;96542.03;;;12.92;71.51
73024;BME280;61199;47.526;8.538;2023-04-27T04:11:09;96539.53;;;13.00;71.26
73024;BME280;61199;47.526;8.538;2023-04-27T04:13:36;96541.63;;;12.96;71.57
73024;BME280;61199;47.526;8.538;2023-04-27T04:16:03;96544.66;;;12.92;71.40
73024;BME280;61199;47.526;8.538;2023-04-27T04:18:31;96542.59;;;12.95;71.57
73024;BME280;61199;47.526;8.538;2023-04-27T04:20:57;96558.75;;;13.00;70.96
73024;BME280;61199;47.526;8.538;2023-04-27T04:23:24;96544.38;;;12.95;71.10
73024;BME280;61199;47.526;8.538;2023-04-27T04:25:51;96550.75;;;12.92;71.17
73024;BME280;61199;47.526;8.538;2023-04-27T04:28:17;96550.22;;;12.89;71.32
73024;BME280;61199;47.526;8.538;2023-04-27T04:30:43;96543.00;;;12.91;71.40
73024;BME280;61199;47.526;8.538;2023-04-27T04:33:10;96538.06;;;12.88;71.76
73024;BME280;61199;47.526;8.538;2023-04-27T04:35:37;96538.31;;;12.85;72.14
73024;BME280;61199;47.526;8.538;2023-04-27T04:38:04;96542.03;;;12.92;71.79
73024;BME280;61199;47.526;8.538;2023-04-27T04:40:31;96539.13;;;12.95;71.71
73024;BME280;61199;47.526;8.538;2023-04-27T04:42:57;96533.31;;;12.91;71.46
73024;BME280;61199;47.526;8.538;2023-04-27T04:45:23;96531.09;;;12.87;71.55
73024;BME280;61199;47.526;8.538;2023-04-27T04:47:50;96532.53;;;12.81;71.48
73024;BME280;61199;47.526;8.538;2023-04-27T04:50:17;96549.13;;;12.82;71.53
73024;BME280;61199;47.526;8.538;2023-04-27T04:52:43;96546.38;;;12.83;71.56
73024;BME280;61199;47.526;8.538;2023-04-27T04:55:10;96551.09;;;12.80;72.30
73024;BME280;61199;47.526;8.538;2023-04-27T04:57:36;96555.16;;;12.65;72.52
73024;BME280;61199;47.526;8.538;2023-04-27T05:00:03;96555.63;;;12.51;73.03
73024;BME280;61199;47.526;8.538;2023-04-27T05:02:31;96555.94;;;12.29;73.53
73024;BME280;61199;47.526;8.538;2023-04-27T05:04:58;96549.59;;;12.31;73.78
73024;BME280;61199;47.526;8.538;2023-04-27T05:07:24;96552.38;;;12.20;74.35
73024;BME280;61199;47.526;8.538;2023-04-27T05:09:51;96555.94;;;12.29;74.04
73024;BME280;61199;47.526;8.538;2023-04-27T05:12:18;96551.25;;;12.32;74.21
73024;BME280;61199;47.526;8.538;2023-04-27T05:14:44;96558.69;;;12.27;74.17
73024;BME280;61199;47.526;8.538;2023-04-27T05:17:11;96560.38;;;12.28;73.98
73024;BME280;61199;47.526;8.538;2023-04-27T05:19:37;96571.69;;;12.38;74.18
73024;BME280;61199;47.526;8.538;2023-04-27T05:22:04;96562.25;;;12.45;73.14
73024;BME280;61199;47.526;8.538;2023-04-27T05:24:30;96555.03;;;12.57;73.21
73024;BME280;61199;47.526;8.538;2023-04-27T05:26:56;96553.91;;;12.69;72.67
73024;BME280;61199;47.526;8.538;2023-04-27T05:29:25;96555.94;;;12.75;72.47
73024;BME280;61199;47.526;8.538;2023-04-27T05:31:52;96559.09;;;12.78;72.27
73024;BME280;61199;47.526;8.538;2023-04-27T05:34:19;96555.38;;;12.81;72.15
73024;BME280;61199;47.526;8.538;2023-04-27T05:36:45;96554.69;;;12.79;72.08
73024;BME280;61199;47.526;8.538;2023-04-27T05:39:14;96560.94;;;12.78;72.14
73024;BME280;61199;47.526;8.538;2023-04-27T05:41:41;96567.72;;;12.71;72.48
73024;BME280;61199;47.526;8.538;2023-04-27T05:44:08;96569.91;;;12.75;72.52
73024;BME280;61199;47.526;8.538;2023-04-27T05:46:34;96571.13;;;12.81;72.19
73024;BME280;61199;47.526;8.538;2023-04-27T05:49:03;96565.03;;;12.80;72.43
73024;BME280;61199;47.526;8.538;2023-04-27T05:51:31;96566.84;;;12.80;72.27
73024;BME280;61199;47.526;8.538;2023-04-27T05:53:58;96567.53;;;12.82;71.99
73024;BME280;61199;47.526;8.538;2023-04-27T05:56:26;96579.13;;;12.89;72.16
73024;BME280;61199;47.526;8.538;2023-04-27T05:58:53;96571.78;;;12.92;71.74
73024;BME280;61199;47.526;8.538;2023-04-27T06:01:19;96570.41;;;12.98;71.40
73024;BME280;61199;47.526;8.538;2023-04-27T06:03:46;96565.16;;;12.98;71.69
73024;BME280;61199;47.526;8.538;2023-04-27T06:06:13;96564.56;;;13.04;71.61
73024;BME280;61199;47.526;8.538;2023-04-27T06:08:39;96573.22;;;13.14;71.37
73024;BME280;61199;47.526;8.538;2023-04-27T06:11:06;96582.72;;;13.24;71.17
73024;BME280;61199;47.526;8.538;2023-04-27T06:13:32;96583.56;;;13.25;70.45
73024;BME280;61199;47.526;8.538;2023-04-27T06:15:59;96586.88;;;13.27;70.94
73024;BME280;61199;47.526;8.538;2023-04-27T06:18:26;96577.69;;;13.31;70.13
73024;BME280;61199;47.526;8.538;2023-04-27T06:20:57;96581.41;;;13.38;70.39
73024;BME280;61199;47.526;8.538;2023-04-27T06:23:24;96581.81;;;13.43;70.02
73024;BME280;61199;47.526;8.538;2023-04-27T06:25:50;96578.47;;;13.41;69.58
73024;BME280;61199;47.526;8.538;2023-04-27T06:28:17;96576.28;;;13.36;nan
73024;BME280;61199;47.526;8.538;2023-04-27T06:30:43;96587.72;;;13.45;69.73
73024;BME280;61199;47.526;8.538;2023-04-27T06:33:10;96582.16;;;13.48;69.42
73024;BME280;61199;47.526;8.538;2023-04-27T06:35:36;96583.69;;;13.50;68.70
73024;BME280;61199;47.526;8.538;2023-04-27T06:38:03;96586.97;;;13.52;68.45
73024;BME280;61199;47.526;8.538;2023-04-27T06:40:32;96584.50;;;13.51;69.05
73024;BME280;61199;47.526;8.538;2023-04-27T06:42:59;96587.53;;;13.56;69.67
73024;BME280;61199;47.526;8.538;2023-04-27T06:45:25;96589.84;;;13.59;69.71
73024;BME280;61199;47.526;8.538;2023-04-27T06:47:51;96591.88;;;13.65;70.05
73024;BME280;61199;47.526;8.538;2023-04-27T06:50:18;96597.03;;;13.66;69.87
73024;BME280;61199;47.526;8.538;2023-04-27T06:52:44;96591.50;;;13.60;70.41
73024;BME280;61199;47.526;8.538;2023-04-27T06:55:11;96593.09;;;13.70;70.08
73024;BME280;61199;47.526;8.538;2023-04-27T06:57:37;96595.41;;;13.73;69.88
73024;BME280;61199;47.526;8.538;2023-04-27T07:00:04;96606.78;;;13.74;69.35
73024;BME280;61199;47.526;8.538;2023-04-27T07:02:30;96604.47;;;13.71;69.09
73024;BME280;61199;47.526;8.538;2023-04-27T07:04:57;96607.09;;;13.71;69.27
73024;BME280;61199;47.526;8.538;2023-04-27T07:07:23;96607.31;;;13.77;68.84
73024;BME280;61199;47.526;8.538;2023-04-27T07:09:50;96601.63;;;13.82;68.63
73024;BME280;61199;47.526;8.538;2023-04-27T07:12:16;96597.00;;;13.84;68.43
73024;BME280;61199;47.526;8.538;2023-04-27T07:14:43;96604.03;;;13.93;68.09
73024;BME280;61199;47.526;8.538;2023-04-27T07:17:09;96610.66;;;13.97;68.43
73024;BME280;61199;47.526;8.538;2023-04-27T07:19:36;96612.38;;;14.06;68.48
73024;BME280;61199;47.526;8.538;2023-04-27T07:22:02;96610.41;;;14.08;67.72
73024;BME280;61199;47.526;8.538;2023-04-27T07:24:29;96607.16;;;14.14;67.59
73024;BME280;61199;47.526;8.538;2023-04-27T07:26:55;96606.88;;;14.17;67.67
73024;BME280;61199;47.526;8.538;2023-04-27T07:29:24;96607.00;;;14.25;67.27
73024;BME280;61199;47.526;8.538;2023-04-27T07:31:53;96615.56;;;14.27;67.05
73024;BME280;61199;47.526;8.538;2023-04-27T07:34:21;96610.50;;;14.33;67.34
73024;BME280;61199;47.526;8.538;2023-04-27T07:36:47;96606.47;;;14.21;66.62
73024;BME280;61199;47.526;8.538;2023-04-27T07:39:14;96603.66;;;14.23;66.76
73024;BME280;61199;47.526;8.538;2023-04-27T07:41:41;96605.69;;;14.29;66.29
73024;BME280;61199;47.526;8.538;2023-04-27T07:44:07;96603.06;;;14.29;65.73
73024;BME280;61199;47.526;8.538;2023-04-27T07:46:34;96600.66;;;14.18;66.42
73024;BME280;61199;47.526;8.538;2023-04-27T07:49:00;96604.03;;;14.28;66.81
73024;BME280;61199;47.526;8.538;2023-04-27T07:51:27;96596.44;;;14.25;65.71
73024;BME280;61199;47.526;8.538;2023-04-27T07:53:54;96592.06;;;13.98;65.21
73024;BME280;61199;47.526;8.538;2023-04-27T07:56:20;96584.88;;;13.73;65.46
73024;BME280;61199;47.526;8.538;2023-04-27T07:58:47;96591.31;;;13.71;64.69
73024;BME280;61199;47.526;8.538;2023-04-27T08:01:13;96593.22;;;13.69;65.73
73024;BME280;61199;47.526;8.538;2023-04-27T08:03:39;96590.78;;;14.02;65.01
73024;BME280;61199;47.526;8.538;2023-04-27T08:06:06;96595.16;;;14.29;65.24
73024;BME280;61199;47.526;8.538;2023-04-27T08:08:34;96594.81;;;14.49;64.70
73024;BME280;61199;47.526;8.538;2023-04-27T08:11:00;96588.88;;;14.47;62.56
73024;BME280;61199;47.526;8.538;2023-04-27T08:13:27;96594.09;;;14.65;62.04
73024;BME280;61199;47.526;8.538;2023-04-27T08:15:53;96589.72;;;14.81;62.01
73024;BME280;61199;47.526;8.538;2023-04-27T08:18:25;96585.16;;;14.91;61.81
73024;BME280;61199;47.526;8.538;2023-04-27T08:20:52;96588.84;;;14.98;61.31
73024;BME280;61199;47.526;8.538;2023-04-27T08:23:19;96584.09;;;15.01;61.17
73024;BME280;61199;47.526;8.538;2023-04-27T08:25:46;96589.81;;;14.97;61.08
73024;BME280;61199;47.526;8.538;2023-04-27T08:28:13;96594.25;;;14.96;61.08
73024;BME280;61199;47.526;8.538;2023-04-27T08:30:41;96596.47;;;14.75;61.14
73024;BME280;61199;47.526;8.538;2023-04-27T08:33:07;96588.69;;;14.99;60.72
73024;BME280;61199;47.526;8.538;2023-04-27T08:35:34;96589.25;;;15.11;61.12
73024;BME280;61199;47.526;8.538;2023-04-27T08:38:01;96591.88;;;15.11;62.41
73024;BME280;61199;47.526;8.538;2023-04-27T08:40:27;96594.69;;;15.09;61.96
73024;BME280;61199;47.526;8.538;2023-04-27T08:42:55;96588.78;;;15.15;61.36
73024;BME280;61199;47.526;8.538;2023-04-27T08:45:25;96590.63;;;15.23;61.53
73024;BME280;61199;47.526;8.538;2023-04-27T08:47:53;96583.88;;;15.28;61.43
73024;BME280;61199;47.526;8.538;2023-04-27T08:50:19;96579.94;;;15.32;60.79
73024;BME280;61199;47.526;8.538;2023-04-27T08:52:47;96587.34;;;15.29;60.98
73024;BME280;61199;47.526;8.538;2023-04-27T08:55:13;96576.53;;;15.40;60.18
73024;BME280;61199;47.526;8.538;2023-04-27T08:57:52;96577.38;;;15.48;59.67
73024;BME280;61199;47.526;8.538;2023-04-27T09:00:19;96575.75;;;15.55;59.15
73024;BME280;61199;47.526;8.538;2023-04-27T09:02:46;96578.06;;;15.66;60.18
73024;BME280;61199;47.526;8.538;2023-04-27T09:05:17;96569.53;;;15.80;60.22
73024;BME280;61199;47.526;8.538;2023-04-27T09:08:02;96565.22;;;15.87;60.12
73024;BME280;61199;47.526;8.538;2023-04-27T09:10:44;96566.88;;;15.96;59.70
73024;BME280;61199;47.526;8.538;2023-04-27T09:13:11;96563.09;;;15.99;59.26
73024;BME280;61199;47.526;8.538;2023-04-27T09:18:14;96560.78;;;16.20;57.98
73024;BME280;61199;47.526;8.538;2023-04-27T09:20:51;96569.09;;;16.41;57.28
73024;BME280;61199;47.526;8.538;2023-04-27T09:25:55;96566.25;;;16.50;55.80
73024;BME280;61199;47.526;8.538;2023-04-27T09:28:23;96569.25;;;16.47;55.54
73024;BME280;61199;47.526;8.538;2023-04-27T09:31:00;96555.53;;;16.52;55.42
73024;BME280;61199;47.526;8.538;2023-04-27T09:33:28;96555.00;;;16.64;55.29
73024;BME280;61199;47.526;8.538;2023-04-27T09:35:56;96559.28;;;16.73;54.53
73024;BME280;61199;47.526;8.538;2023-04-27T09:38:23;96559.25;;;16.89;54.27
73024;BME280;61199;47.526;8.538;2023-04-27T09:40:51;96552.78;;;16.92;54.05
73024;BME280;61199;47.526;8.538;2023-04-27T09:43:18;96554.25;;;17.02;53.84
73024;BME280;61199;47.526;8.538;2023-04-27T09:45:44;96555.53;;;17.06;53.70
73024;BME280;61199;47.526;8.538;2023-04-27T09:48:12;96554.69;;;17.14;53.37
73024;BME280;61199;47.526;8.538;2023-04-27T09:50:41;96551.72;;;17.09;52.66
73024;BME280;61199;47.526;8.538;2023-04-27T09:53:12;96558.50;;;17.11;53.20
73024;BME280;61199;47.526;8.538;2023-04-27T09:58:46;96551.84;;;17.23;52.59
73024;BME280;61199;47.526;8.538;2023-04-27T10:04:25;96551.31;;;16.89;52.74
73024;BME280;61199;47.526;8.538;2023-04-27T10:07:03;96550.63;;;16.95;53.31
73024;BME280;61199;47.526;8.538;2023-04-27T10:09:40;96551.31;;;16.89;52.79
73024;BME280;61199;47.526;8.538;2023-04-27T10:12:26;96541.78;;;16.56;53.22
73024;BME280;61199;47.526;8.538;2023-04-27T10:14:54;96547.09;;;16.56;53.75
73024;BME280;61199;47.526;8.538;2023-04-27T10:17:32;96537.16;;;16.58;53.38
73024;BME280;61199;47.526;8.538;2023-04-27T10:20:01;96539.47;;;16.61;53.63
73024;BME280;61199;47.526;8.538;2023-04-27T10:22:42;96536.38;;;16.96;53.05
73024;BME280;61199;47.526;8.538;2023-04-27T10:25:15;96537.34;;;17.11;53.06
73024;BME280;61199;47.526;8.538;2023-04-27T10:27:42;96535.16;;;17.15;52.97
73024;BME280;61199;47.526;8.538;2023-04-27T10:30:10;96536.56;;;17.33;52.39
73024;BME280;61199;47.526;8.538;2023-04-27T10:32:36;96531.78;;;17.29;50.42
73024;BME280;61199;47.526;8.538;2023-04-27T10:35:04;96530.31;;;17.26;51.06
73024;BME280;61199;47.526;8.538;2023-04-27T10:37:40;96529.66;;;17.24;51.40
73024;BME280;61199;47.526;8.538;2023-04-27T10:40:09;96520.53;;;17.27;50.94
73024;BME280;61199;47.526;8.538;2023-04-27T10:42:35;96525.47;;;17.38;51.33
73024;BME280;61199;47.526;8.538;2023-04-27T10:45:02;96521.22;;;17.59;50.95
73024;BME280;61199;47.526;8.538;2023-04-27T10:47:36;96518.94;;;17.56;50.72
73024;BME280;61199;47.526;8.538;2023-04-27T10:50:04;96519.75;;;17.79;50.04
73024;BME280;61199;47.526;8.538;2023-04-27T10:52:31;96523.66;;;17.91;49.67
73024;BME280;61199;47.526;8.538;2023-04-27T10:55:11;96524.53;;;18.06;48.33
73024;BME280;61199;47.526;8.538;2023-04-27T10:57:45;96522.59;;;18.22;47.48
73024;BME280;61199;47.526;8.538;2023-04-27T11:00:12;96513.63;;;18.23;46.50
73024;BME280;61199;47.526;8.538;2023-04-27T11:02:41;96522.66;;;18.14;45.75
73024;BME280;61199;47.526;8.538;2023-04-27T11:05:17;96520.38;;;17.28;46.22
73024;BME280;61199;47.526;8.538;2023-04-27T11:07:43;96516.22;;;16.95;47.22
73024;BME280;61199;47.526;8.538;2023-04-27T11:10:14;96527.91;;;17.09;47.29
73024;BME280;61199;47.526;8.538;2023-04-27T11:12:41;96519.38;;;17.29;46.61
73024;BME280;61199;47.526;8.538;2023-04-27T11:15:08;96510.91;;;16.95;47.29
73024;BME280;61199;47.526;8.538;2023-04-27T11:17:34;96527.81;;;17.33;48.16
73024;BME280;61199;47.526;8.538;2023-04-27T11:20:01;96522.88;;;17.60;48.20
73024;BME280;61199;47.526;8.538;2023-04-27T11:22:28;96514.69;;;17.47;48.41
73024;BME280;61199;47.526;8.538;2023-04-27T11:24:55;96519.06;;;17.63;48.50
73024;BME280;61199;47.526;8.538;2023-04-27T11:27:21;96515.72;;;17.69;45.64
73024;BME280;61199;47.526;8.538;2023-04-27T11:29:49;96519.06;;;17.24;47.56
73024;BME280;61199;47.526;8.538;2023-04-27T11:32:22;96519.38;;;16.91;47.28
73024;BME280;61199;47.526;8.538;2023-04-27T11:34:50;96520.41;;;16.82;48.66
73024;BME280;61199;47.526;8.538;2023-04-27T11:37:24;96520.09;;;17.15;48.11
73024;BME280;61199;47.526;8.538;2023-04-27T11:39:52;96520.47;;;17.51;46.54
73024;BME280;61199;47.526;8.538;2023-04-27T11:42:26;96513.06;;;17.91;46.17
73024;BME280;61199;47.526;8.538;2023-04-27T11:45:11;96508.66;;;18.20;45.90
73024;BME280;61199;47.526;8.538;2023-04-27T11:47:38;96512.03;;;18.37;45.26
73024;BME280;61199;47.526;8.538;2023-04-27T11:50:07;96500.91;;;18.19;44.58
73024;BME280;61199;47.526;8.538;2023-04-27T11:52:36;96497.06;;;18.44;44.31
73024;BME280;61199;47.526;8.538;2023-04-27T11:55:03;96511.94;;;18.08;44.38
73024;BME280;61199;47.526;8.538;2023-04-27T11:57:32;96499.25;;;18.18;44.54
73024;BME280;61199;47.526;8.538;2023-04-27T12:00:00;96497.97;;;17.91;44.94
73024;BME280;61199;47.526;8.538;2023-04-27T12:02:28;96499.75;;;17.99;45.16
73024;BME280;61199;47.526;8.538;2023-04-27T12:04:55;96491.19;;;17.44;45.65
73024;BME280;61199;47.526;8.538;2023-04-27T12:07:22;96488.78;;;17.57;46.16
73024;BME280;61199;47.526;8.538;2023-04-27T12:09:48;96490.03;;;17.69;45.88
73024;BME280;61199;47.526;8.538;2023-04-27T12:12:15;96490.69;;;17.71;44.48
73024;BME280;61199;47.526;8.538;2023-04-27T12:14:47;96480.97;;;17.64;44.19
73024;BME280;61199;47.526;8.538;2023-04-27T12:17:14;96481.44;;;17.67;44.37
73024;BME280;61199;47.526;8.538;2023-04-27T12:19:40;96468.34;;;17.66;45.05
73024;BME280;61199;47.526;8.538;2023-04-27T12:22:07;96470.63;;;17.77;44.55
73024;BME280;61199;47.526;8.538;2023-04-27T12:24:34;96466.00;;;17.93;44.59
73024;BME280;61199;47.526;8.538;2023-04-27T12:27:02;96471.31;;;18.30;44.76
73024;BME280;61199;47.526;8.538;2023-04-27T12:29:30;96466.22;;;18.57;43.21
73024;BME280;61199;47.526;8.538;2023-04-27T12:31:59;96462.75;;;18.86;43.88
73024;BME280;61199;47.526;8.538;2023-04-27T12:34:25;96469.88;;;19.14;41.97
73024;BME280;61199;47.526;8.538;2023-04-27T12:36:53;96467.13;;;19.22;40.97
73024;BME280;61199;47.526;8.538;2023-04-27T12:39:21;96460.34;;;19.20;41.89
73024;BME280;61199;47.526;8.538;2023-04-27T12:41:50;96460.09;;;19.50;41.73
73024;BME280;61199;47.526;8.538;2023-04-27T12:44:17;96457.88;;;19.75;41.73
73024;BME280;61199;47.526;8.538;2023-04-27T12:46:45;96459.91;;;19.73;40.83
73024;BME280;61199;47.526;8.538;2023-04-27T12:49:14;96458.56;;;19.62;41.20
73024;BME280;61199;47.526;8.538;2023-04-27T12:51:41;96466.75;;;19.25;41.82
73024;BME280;61199;47.526;8.538;2023-04-27T12:54:08;96460.44;;;19.12;42.28
73024;BME280;61199;47.526;8.538;2023-04-27T12:56:36;96451.03;;;19.45;40.97
73024;BME280;61199;47.526;8.538;2023-04-27T12:59:02;96447.19;;;19.68;41.22
73024;BME280;61199;47.526;8.538;2023-04-27T13:01:29;96442.81;;;20.03;40.42
73024;BME280;61199;47.526;8.538;2023-04-27T13:04:01;96439.94;;;20.25;39.26
73024;BME280;61199;47.526;8.538;2023-04-27T13:06:29;96444.31;;;20.39;39.85
73024;BME280;61199;47.526;8.538;2023-04-27T13:09:00;96438.88;;;20.47;39.57
73024;BME280;61199;47.526;8.538;2023-04-27T13:11:26;96438.97;;;20.05;39.38
73024;BME280;61199;47.526;8.538;2023-04-27T13:13:53;96443.63;;;19.82;40.04